Terminal Aerodrome Forecast
Issued by NWS

Home | Current Version | Previous Version | Text Only | Print | Product List | Glossary On
Versions: 1 2 3 4 5 6 7 8 9 10 11 12 13 14 15 16 17 18 19
000
FTUS43 KEAX 291700
TAFSTJ
TAF
KSTJ 291728Z 2918/3018 19010KT 6SM -RA OVC060
     FM292100 22009KT P6SM BKN050
     FM300300 31010KT P6SM VCTS BKN025CB
     FM300800 33008KT P6SM OVC007=

USA.gov is the U.S. government's official web portal to all federal, state and local government web resources and services.